Time;durP1;ratioP1;P1;durP2;ratioP2;P2;SDS_P1;SDS_P2;PMS_P1;PMS_P2;Temp;Humidity;BMP_temperature;BMP_pressure;BME280_temperature;BME280_humidity;BME280_pressure;Samples;Min_cycle;Max_cycle;Signal;HPM_P1;HPM_P2
2022/10/06 00:00:45;;;;;;;6.93;2.00;;;14.40;99.90;;;;;;5075461;28;20036;-78
2022/10/06 00:03:11;;;;;;;7.18;1.95;;;14.30;99.90;;;;;;5075791;28;20056;-79
2022/10/06 00:05:37;;;;;;;8.15;1.50;;;13.80;99.90;;;;;;5073927;28;20066;-78
2022/10/06 00:08:03;;;;;;;11.75;2.10;;;13.80;99.90;;;;;;5057107;28;20516;-79
2022/10/06 00:10:29;;;;;;;8.90;1.63;;;13.80;99.90;;;;;;5092703;28;20381;-78
2022/10/06 00:12:55;;;;;;;8.25;1.80;;;13.70;99.90;;;;;;5093509;28;20043;-79
2022/10/06 00:15:24;;;;;;;9.30;2.00;;;14.30;99.90;;;;;;5074484;28;20116;-79
2022/10/06 00:17:49;;;;;;;9.15;2.10;;;14.90;99.90;;;;;;5093016;28;20051;-79
2022/10/06 00:20:17;;;;;;;11.95;1.92;;;13.80;99.90;;;;;;5058657;28;20047;-79
2022/10/06 00:22:46;;;;;;;10.20;2.13;;;13.70;99.90;;;;;;5058248;28;20044;-79
2022/10/06 00:25:13;;;;;;;8.68;2.05;;;13.70;99.90;;;;;;5092997;28;20039;-79
2022/10/06 00:27:41;;;;;;;10.30;2.10;;;13.70;99.90;;;;;;5073012;28;20043;-79
2022/10/06 00:30:10;;;;;;;11.32;2.00;;;14.10;99.90;;;;;;5093245;28;20040;-79
2022/10/06 00:32:36;;;;;;;12.50;2.20;;;13.70;99.90;;;;;;5092815;28;20048;-79
2022/10/06 00:35:02;;;;;;;11.13;2.10;;;14.70;99.90;;;;;;5058332;28;20044;-79
2022/10/06 00:37:28;;;;;;;8.65;1.80;;;13.70;99.90;;;;;;5074628;28;20043;-79
2022/10/06 00:39:54;;;;;;;12.80;2.15;;;14.70;99.90;;;;;;5074974;28;20036;-79
2022/10/06 00:42:29;;;;;;;12.75;2.30;;;14.70;99.90;;;;;;5074499;28;20453;-78
2022/10/06 00:44:58;;;;;;;11.77;1.90;;;13.70;99.90;;;;;;5092982;28;20532;-79
2022/10/06 00:47:29;;;;;;;13.63;2.25;;;13.60;99.90;;;;;;5074635;28;20052;-78
2022/10/06 00:49:57;;;;;;;11.45;2.20;;;13.60;99.90;;;;;;5074830;28;20550;-79
2022/10/06 00:52:25;;;;;;;12.93;3.00;;;13.60;99.90;;;;;;5058176;28;20062;-79
2022/10/06 00:54:51;;;;;;;10.57;2.20;;;13.60;99.90;;;;;;5074772;28;20134;-79
2022/10/06 00:57:19;;;;;;;11.52;1.98;;;14.10;99.90;;;;;;5074152;28;20264;-79
2022/10/06 00:59:45;;;;;;;7.75;1.92;;;13.90;99.90;;;;;;5092900;28;20423;-78
2022/10/06 01:02:36;;;;;;;9.82;2.05;;;14.00;99.90;;;;;;5074484;28;20103;-78
2022/10/06 01:05:04;;;;;;;9.93;2.25;;;13.50;99.90;;;;;;5049895;28;20109;-79
2022/10/06 01:07:30;;;;;;;10.10;2.47;;;13.50;99.90;;;;;;5074637;28;20040;-79
2022/10/06 01:09:56;;;;;;;9.10;2.58;;;13.50;99.90;;;;;;5092581;28;20051;-79
2022/10/06 01:12:24;;;;;;;15.40;2.13;;;13.90;99.90;;;;;;5057408;28;20044;-79
2022/10/06 01:14:51;;;;;;;12.80;2.63;;;14.40;99.90;;;;;;5092964;28;20052;-79
2022/10/06 01:17:40;;;;;;;13.02;2.40;;;13.30;99.90;;;;;;5092409;28;20137;-79
2022/10/06 01:20:08;;;;;;;13.10;2.33;;;13.40;99.90;;;;;;5092696;28;20048;-79
2022/10/06 01:22:42;;;;;;;12.80;2.38;;;13.40;99.90;;;;;;5092129;28;20404;-78
2022/10/06 01:25:09;;;;;;;10.88;2.38;;;13.40;99.90;;;;;;5092414;28;20086;-79
2022/10/06 01:27:38;;;;;;;8.75;2.03;;;13.40;99.90;;;;;;5091400;28;20040;-79
2022/10/06 01:30:07;;;;;;;18.48;3.05;;;13.40;99.90;;;;;;5074351;28;20036;-79
2022/10/06 01:32:35;;;;;;;10.00;2.00;;;13.30;99.90;;;;;;5091907;28;20051;-79
2022/10/06 01:35:01;;;;;;;12.60;2.13;;;14.80;99.90;;;;;;5074569;28;20491;-79
2022/10/06 01:37:27;;;;;;;12.35;2.28;;;14.40;99.90;;;;;;5074020;28;20127;-79
2022/10/06 01:39:52;;;;;;;13.07;2.33;;;13.90;99.90;;;;;;5058170;28;20044;-78
2022/10/06 01:42:18;;;;;;;13.65;2.65;;;13.50;99.90;;;;;;5092047;28;20105;-78
2022/10/06 01:44:44;;;;;;;11.90;2.75;;;13.40;99.90;;;;;;5092382;28;20104;-79
2022/10/06 01:47:09;;;;;;;12.43;2.45;;;13.40;99.90;;;;;;5092200;28;20071;-79
2022/10/06 01:49:35;;;;;;;9.02;2.40;;;13.40;99.90;;;;;;5091242;28;20036;-79
2022/10/06 01:52:01;;;;;;;14.02;2.30;;;14.10;99.90;;;;;;5057202;28;20111;-79
2022/10/06 01:54:26;;;;;;;12.70;2.30;;;13.40;99.90;;;;;;5074126;28;20052;-79
2022/10/06 01:56:52;;;;;;;11.77;2.35;;;13.40;99.90;;;;;;5091946;28;20397;-79
2022/10/06 01:59:17;;;;;;;13.77;2.30;;;14.10;99.90;;;;;;5092062;28;20039;-78
2022/10/06 02:01:43;;;;;;;11.75;2.78;;;14.60;99.90;;;;;;5091065;28;20036;-78
2022/10/06 02:04:09;;;;;;;12.82;2.13;;;13.40;99.90;;;;;;5057202;28;20043;-79
2022/10/06 02:06:34;;;;;;;13.32;2.67;;;13.20;99.90;;;;;;5071338;28;20044;-79
2022/10/06 02:09:01;;;;;;;12.73;2.45;;;13.20;99.90;;;;;;5075694;28;20088;-79
2022/10/06 02:11:27;;;;;;;13.90;2.20;;;13.10;99.90;;;;;;5077743;28;20056;-78
2022/10/06 02:13:53;;;;;;;12.38;2.67;;;13.10;99.90;;;;;;5077746;28;20040;-79
2022/10/06 02:16:19;;;;;;;12.60;2.30;;;13.10;99.90;;;;;;5095704;28;20392;-78
2022/10/06 02:18:45;;;;;;;8.38;2.20;;;13.10;99.90;;;;;;5077742;28;20044;-79
2022/10/06 02:21:19;;;;;;;10.13;1.90;;;14.20;99.90;;;;;;5095454;28;20484;-78
2022/10/06 02:23:45;;;;;;;15.55;2.55;;;13.10;99.90;;;;;;5077799;28;20051;-79
2022/10/06 02:26:12;;;;;;;9.98;2.20;;;14.00;99.90;;;;;;5095490;28;20036;-78
2022/10/06 02:28:38;;;;;;;12.93;2.30;;;13.00;99.90;;;;;;5095654;28;20557;-78
2022/10/06 02:31:08;;;;;;;11.68;2.10;;;14.20;99.90;;;;;;5077107;28;20047;-79
2022/10/06 02:33:35;;;;;;;11.00;1.98;;;13.30;99.90;;;;;;5075325;28;20476;-79
2022/10/06 02:36:01;;;;;;;10.63;2.60;;;14.00;99.90;;;;;;5076560;28;20067;-78
2022/10/06 02:38:27;;;;;;;11.02;2.15;;;14.00;99.90;;;;;;5077141;28;20476;-78
2022/10/06 02:40:53;;;;;;;10.52;2.15;;;13.00;99.90;;;;;;5077228;28;20400;-78
2022/10/06 02:43:22;;;;;;;18.05;2.47;;;14.30;99.90;;;;;;5076817;28;20066;-79
2022/10/06 02:46:14;;;;;;;12.15;2.50;;;13.10;99.90;;;;;;5094206;28;20047;-79
2022/10/06 02:48:41;;;;;;;10.00;2.08;;;13.10;99.90;;;;;;5077012;28;20490;-78
2022/10/06 02:51:10;;;;;;;17.15;2.58;;;13.10;99.90;;;;;;5094969;28;20432;-78
2022/10/06 02:53:36;;;;;;;10.23;2.40;;;13.30;99.90;;;;;;5076912;28;20470;-78
2022/10/06 02:56:05;;;;;;;10.25;1.98;;;13.00;99.90;;;;;;5098443;28;20083;-78
2022/10/06 02:58:31;;;;;;;12.98;2.33;;;13.00;99.90;;;;;;5096406;28;20070;-78
2022/10/06 03:01:05;;;;;;;14.23;2.42;;;13.00;99.90;;;;;;5099126;28;20392;-79
2022/10/06 03:03:33;;;;;;;9.23;2.40;;;13.10;99.90;;;;;;5094971;28;20087;-78
2022/10/06 03:06:05;;;;;;;11.73;2.25;;;13.40;99.90;;;;;;5077101;28;20059;-78
2022/10/06 03:08:32;;;;;;;9.98;2.08;;;13.20;99.90;;;;;;5095182;28;20107;-79
2022/10/06 03:11:05;;;;;;;8.35;1.95;;;13.10;99.90;;;;;;5093846;28;20497;-79
2022/10/06 03:13:31;;;;;;;14.80;2.25;;;13.20;99.90;;;;;;5074982;28;20143;-78
2022/10/06 03:15:57;;;;;;;12.90;2.78;;;13.10;99.90;;;;;;5059483;28;20086;-78
2022/10/06 03:18:22;;;;;;;12.80;2.40;;;13.00;99.90;;;;;;5076552;28;20079;-78
2022/10/06 03:20:48;;;;;;;10.80;2.38;;;14.00;99.90;;;;;;5094335;28;20040;-78
2022/10/06 03:23:14;;;;;;;10.80;2.15;;;13.00;99.90;;;;;;5076377;28;20139;-78
2022/10/06 03:25:39;;;;;;;9.30;2.25;;;12.90;99.90;;;;;;5094521;28;20097;-78
2022/10/06 03:28:05;;;;;;;12.32;2.38;;;13.00;99.90;;;;;;5094588;28;20047;-79
2022/10/06 03:30:31;;;;;;;10.55;2.45;;;12.90;99.90;;;;;;5076263;28;20043;-78
2022/10/06 03:32:58;;;;;;;10.00;1.95;;;12.80;99.90;;;;;;5075791;28;20533;-78
2022/10/06 03:35:24;;;;;;;9.60;2.67;;;12.80;99.90;;;;;;5086596;28;20048;-78
2022/10/06 03:37:50;;;;;;;14.85;2.30;;;13.30;99.90;;;;;;5076071;28;20063;-78
2022/10/06 03:40:15;;;;;;;11.63;2.20;;;13.70;99.90;;;;;;5076571;28;20050;-78
2022/10/06 03:42:41;;;;;;;13.10;2.35;;;12.90;99.90;;;;;;5093938;28;20048;-78
2022/10/06 03:45:07;;;;;;;16.35;2.55;;;14.00;99.90;;;;;;5093643;28;20036;-78
2022/10/06 03:47:33;;;;;;;11.00;2.17;;;12.70;99.90;;;;;;5092347;28;20040;-78
2022/10/06 03:49:58;;;;;;;13.68;2.72;;;12.70;99.90;;;;;;5076165;28;20073;-78
2022/10/06 03:52:24;;;;;;;14.02;2.58;;;12.60;99.90;;;;;;5093701;28;20101;-78
2022/10/06 03:54:50;;;;;;;12.48;2.25;;;12.60;99.90;;;;;;5094017;28;20054;-77
2022/10/06 03:57:15;;;;;;;8.90;2.10;;;13.40;99.90;;;;;;5075495;28;20040;-78
2022/10/06 03:59:41;;;;;;;8.70;2.28;;;13.00;99.90;;;;;;5076049;28;20048;-78
2022/10/06 04:02:06;;;;;;;9.98;2.10;;;13.50;99.90;;;;;;5093517;28;20097;-78
2022/10/06 04:04:32;;;;;;;8.23;2.00;;;12.90;99.90;;;;;;5059055;28;20131;-78
2022/10/06 04:06:58;;;;;;;13.57;2.75;;;13.30;99.90;;;;;;5099480;28;20051;-78
2022/10/06 04:09:23;;;;;;;9.73;2.10;;;13.50;99.90;;;;;;5095823;28;20480;-78
2022/10/06 04:11:50;;;;;;;7.63;2.00;;;12.70;99.90;;;;;;5113879;28;20175;-78
2022/10/06 04:14:16;;;;;;;8.70;2.20;;;12.40;99.90;;;;;;5095687;28;20039;-78
2022/10/06 04:16:44;;;;;;;13.52;2.35;;;12.40;99.90;;;;;;5095372;28;20377;-77
2022/10/06 04:19:11;;;;;;;12.98;2.40;;;12.40;99.90;;;;;;5113949;28;20075;-77
2022/10/06 04:21:40;;;;;;;9.85;2.58;;;12.80;99.90;;;;;;5095512;28;20048;-78
2022/10/06 04:24:07;;;;;;;11.68;2.35;;;13.50;99.90;;;;;;5095703;28;20052;-77
2022/10/06 04:26:38;;;;;;;12.48;2.35;;;12.30;99.90;;;;;;5095385;28;20124;-78
2022/10/06 04:29:04;;;;;;;12.75;2.33;;;12.30;99.90;;;;;;5113928;28;20611;-77
2022/10/06 04:31:35;;;;;;;8.95;2.17;;;12.20;99.90;;;;;;5094392;28;20062;-77
2022/10/06 04:34:02;;;;;;;13.80;2.67;;;12.20;99.90;;;;;;5113399;28;20091;-78
2022/10/06 04:36:31;;;;;;;11.80;2.13;;;13.20;99.90;;;;;;5113306;28;20097;-78
2022/10/06 04:39:02;;;;;;;8.40;2.38;;;13.20;99.90;;;;;;5078700;28;20040;-78
2022/10/06 04:41:30;;;;;;;10.40;2.00;;;12.70;99.90;;;;;;5076104;28;20040;-77
2022/10/06 04:43:57;;;;;;;12.55;2.33;;;12.10;99.90;;;;;;5057320;28;20102;-78
2022/10/06 04:46:23;;;;;;;14.00;2.67;;;12.40;99.90;;;;;;5073089;28;20117;-77
2022/10/06 04:48:51;;;;;;;11.15;2.20;;;12.60;99.90;;;;;;5093118;28;20032;-78
2022/10/06 04:51:18;;;;;;;9.63;2.60;;;13.00;99.90;;;;;;5074396;28;20040;-78
2022/10/06 04:53:43;;;;;;;11.93;2.20;;;12.40;99.90;;;;;;5092899;28;20051;-78
2022/10/06 04:56:12;;;;;;;10.77;2.40;;;12.00;99.90;;;;;;5096044;28;20400;-77
2022/10/06 04:58:43;;;;;;;12.15;2.53;;;12.00;99.90;;;;;;5094761;28;20113;-77
2022/10/06 05:01:29;;;;;;;10.20;2.38;;;11.90;99.90;;;;;;5094332;28;20062;-78
2022/10/06 05:03:56;;;;;;;;;;;12.00;99.90;;;;;;5113558;28;20039;-77
2022/10/06 05:06:41;;;;;;;14.20;2.63;;;12.10;99.90;;;;;;5113064;28;20006;-77
2022/10/06 05:09:10;;;;;;;19.13;2.30;;;12.90;99.90;;;;;;5093040;28;20091;-77
2022/10/06 05:11:36;;;;;;;12.40;2.33;;;13.00;99.90;;;;;;5110972;28;20055;-78
2022/10/06 05:14:02;;;;;;;15.27;2.30;;;12.30;99.90;;;;;;5076525;28;20048;-78
2022/10/06 05:16:29;;;;;;;11.90;2.50;;;11.90;99.90;;;;;;5112637;28;20361;-78
2022/10/06 05:18:55;;;;;;;11.25;2.85;;;11.90;99.90;;;;;;5094848;28;20047;-77
2022/10/06 05:21:23;;;;;;;12.60;2.60;;;11.90;99.90;;;;;;5094538;28;20337;-79
2022/10/06 05:23:49;;;;;;;12.80;2.83;;;12.20;99.90;;;;;;5094639;28;20047;-77
2022/10/06 05:26:24;;;;;;;12.63;2.40;;;13.00;99.90;;;;;;5077332;28;20043;-78
2022/10/06 05:28:50;;;;;;;11.83;2.23;;;11.80;99.90;;;;;;5094462;28;20052;-77
2022/10/06 05:31:18;;;;;;;10.35;2.42;;;13.10;99.90;;;;;;5105538;28;20040;-77
2022/10/06 05:33:44;;;;;;;18.20;2.75;;;12.70;99.90;;;;;;5057209;28;20056;-77
2022/10/06 05:36:16;;;;;;;15.70;2.90;;;12.30;99.90;;;;;;5091869;28;20067;-77
2022/10/06 05:38:42;;;;;;;12.20;2.58;;;11.90;99.90;;;;;;5072837;28;20048;-77
2022/10/06 05:41:13;;;;;;;15.35;2.70;;;12.20;99.90;;;;;;5091721;28;20389;-79
2022/10/06 05:43:42;;;;;;;9.65;2.35;;;12.50;99.90;;;;;;5075989;28;20044;-77
2022/10/06 05:46:18;;;;;;;12.15;3.20;;;12.60;99.90;;;;;;5096188;28;20043;-80
2022/10/06 05:48:53;;;;;;;12.63;2.38;;;12.00;99.90;;;;;;5096382;28;20457;-80
2022/10/06 05:51:20;;;;;;;17.52;2.95;;;11.80;99.90;;;;;;5061040;28;20036;-77
2022/10/06 05:53:47;;;;;;;15.80;2.58;;;12.40;99.90;;;;;;5077922;28;20043;-78
2022/10/06 05:56:17;;;;;;;12.10;2.60;;;11.80;99.90;;;;;;5096100;28;20048;-77
2022/10/06 05:58:45;;;;;;;9.32;2.25;;;11.90;99.90;;;;;;5078010;28;20062;-78
2022/10/06 06:01:23;;;;;;;11.45;2.30;;;12.20;99.90;;;;;;5095476;28;20040;-78
2022/10/06 06:03:52;;;;;;;12.05;2.47;;;11.80;99.90;;;;;;5096074;28;20048;-78
2022/10/06 06:06:39;;;;;;;14.43;2.67;;;11.80;99.90;;;;;;5076979;28;20583;-78
2022/10/06 06:09:14;;;;;;;14.60;2.63;;;11.80;99.90;;;;;;5077576;28;20062;-78
2022/10/06 06:11:43;;;;;;;13.85;2.50;;;12.40;99.90;;;;;;5077584;28;20079;-77
2022/10/06 06:14:17;;;;;;;12.35;2.60;;;11.90;99.90;;;;;;5095553;28;20527;-78
2022/10/06 06:16:43;;;;;;;13.77;2.72;;;11.40;99.90;;;;;;5077066;28;20084;-79
2022/10/06 06:19:11;;;;;;;13.05;2.40;;;12.70;99.90;;;;;;5095756;28;20064;-78
2022/10/06 06:21:37;;;;;;;12.70;2.95;;;13.10;99.90;;;;;;5077163;28;20040;-78
2022/10/06 06:24:03;;;;;;;11.50;2.13;;;11.90;99.90;;;;;;5095453;28;20047;-78
2022/10/06 06:26:31;;;;;;;12.60;2.65;;;12.00;99.90;;;;;;5077319;28;20126;-79
2022/10/06 06:29:02;;;;;;;9.50;2.38;;;12.50;99.90;;;;;;5095559;28;20047;-79
2022/10/06 06:31:31;;;;;;;10.93;2.70;;;12.10;99.90;;;;;;5076735;28;20087;-78
2022/10/06 06:33:58;;;;;;;12.70;2.33;;;13.00;99.90;;;;;;5095103;28;20055;-78
2022/10/06 06:36:34;;;;;;;11.25;2.45;;;12.20;99.90;;;;;;5076289;28;20510;-78
2022/10/06 06:39:01;;;;;;;9.90;2.30;;;12.80;99.90;;;;;;5075835;28;20441;-79
2022/10/06 06:41:29;;;;;;;11.02;1.98;;;12.30;99.90;;;;;;5075447;28;20451;-78
2022/10/06 06:43:55;;;;;;;11.63;2.30;;;12.40;99.90;;;;;;5094988;28;20028;-79
2022/10/06 06:46:25;;;;;;;16.27;3.05;;;12.70;99.90;;;;;;5094766;28;20129;-78
2022/10/06 06:48:52;;;;;;;15.75;2.55;;;12.80;99.90;;;;;;5095111;28;20063;-79
2022/10/06 06:51:21;;;;;;;14.93;3.03;;;12.90;99.90;;;;;;5093116;28;20461;-78
2022/10/06 06:53:46;;;;;;;11.63;2.50;;;13.50;99.90;;;;;;5094078;28;20040;-78
2022/10/06 06:56:12;;;;;;;11.10;2.67;;;13.00;99.90;;;;;;5094354;28;20127;-79
2022/10/06 06:58:38;;;;;;;17.58;2.75;;;13.10;99.90;;;;;;5093702;28;20035;-79
2022/10/06 07:01:12;;;;;;;12.23;2.67;;;13.20;99.90;;;;;;5074396;28;20075;-79
2022/10/06 07:03:57;;;;;;;12.02;2.42;;;13.20;99.90;;;;;;5076746;28;20044;-79
2022/10/06 07:06:26;;;;;;;10.48;2.60;;;13.10;99.90;;;;;;5076684;28;20044;-78
2022/10/06 07:08:53;;;;;;;13.98;3.45;;;13.40;99.90;;;;;;5094702;28;20051;-78
2022/10/06 07:11:20;;;;;;;17.13;3.00;;;13.40;99.90;;;;;;5094352;28;20044;-78
2022/10/06 07:13:50;;;;;;;12.63;2.35;;;13.80;99.90;;;;;;5076635;28;20044;-79
2022/10/06 07:27:28;;;;;;;9.05;2.65;;;13.50;99.90;;;;;;5094289;28;20054;-78
2022/10/06 07:29:55;;;;;;;12.98;2.70;;;13.50;99.90;;;;;;5094386;28;20093;-78
2022/10/06 07:32:25;;;;;;;11.63;2.42;;;13.70;99.90;;;;;;5073987;28;20083;-78
2022/10/06 07:34:52;;;;;;;16.10;2.75;;;14.70;99.90;;;;;;5076418;28;20040;-79
2022/10/06 07:37:18;;;;;;;13.73;3.03;;;14.00;99.90;;;;;;5075727;28;20105;-78
2022/10/06 07:39:45;;;;;;;9.98;2.42;;;15.10;99.90;;;;;;5093668;28;20036;-79
2022/10/06 07:42:11;;;;;;;13.88;2.90;;;14.20;99.90;;;;;;5072256;28;20498;-79
2022/10/06 07:44:38;;;;;;;9.75;2.40;;;14.70;99.90;;;;;;5075866;28;20125;-79
2022/10/06 07:47:04;;;;;;;11.88;3.15;;;14.60;99.90;;;;;;5059227;28;20461;-79
2022/10/06 07:49:30;;;;;;;10.05;2.90;;;15.10;99.90;;;;;;5075756;28;20080;-79
2022/10/06 07:51:57;;;;;;;14.73;3.22;;;15.80;99.90;;;;;;5075575;28;20075;-79
2022/10/06 07:54:25;;;;;;;9.75;2.65;;;15.80;99.90;;;;;;5093857;28;20048;-80
2022/10/06 07:56:52;;;;;;;15.77;2.97;;;15.80;99.90;;;;;;5075324;28;20058;-79
2022/10/06 07:59:19;;;;;;;11.75;2.80;;;17.10;99.90;;;;;;5075502;28;20044;-80
2022/10/06 08:01:44;;;;;;;12.55;2.80;;;16.60;99.90;;;;;;5058891;28;20036;-79
2022/10/06 08:04:11;;;;;;;10.80;2.40;;;16.40;99.90;;;;;;5092052;28;20101;-79
2022/10/06 08:06:38;;;;;;;14.10;2.50;;;16.30;99.90;;;;;;5089862;28;20050;-79
2022/10/06 08:09:04;;;;;;;19.05;2.80;;;16.60;99.90;;;;;;5074781;28;20039;-79
2022/10/06 08:11:30;;;;;;;14.25;2.45;;;16.20;99.90;;;;;;5074935;28;20477;-79
2022/10/06 08:13:56;;;;;;;11.88;2.33;;;16.60;99.90;;;;;;5058743;28;20100;-80
2022/10/06 08:16:28;;;;;;;16.17;2.90;;;15.90;99.90;;;;;;5058191;28;20453;-79
2022/10/06 08:18:56;;;;;;;14.48;2.70;;;16.70;99.90;;;;;;5074877;28;20046;-78
2022/10/06 08:21:27;;;;;;;12.30;2.00;;;16.80;99.90;;;;;;5074816;28;20035;-79
2022/10/06 08:23:55;;;;;;;12.85;2.28;;;17.00;99.90;;;;;;5075029;28;20079;-79
2022/10/06 08:26:22;;;;;;;10.65;2.60;;;17.00;99.90;;;;;;5074806;28;20040;-79
2022/10/06 08:28:53;;;;;;;11.32;2.22;;;;;;;;;;5075092;28;20044;-79
2022/10/06 08:31:20;;;;;;;10.75;2.22;;;;;;;;;;5092764;28;20040;-78
2022/10/06 08:33:46;;;;;;;12.88;2.30;;;;;;;;;;5092929;28;20135;-78
2022/10/06 08:36:14;;;;;;;13.10;2.53;;;;;;;;;;5057763;28;20040;-78
2022/10/06 08:38:40;;;;;;;10.88;2.40;;;;;;;;;;5074920;28;20119;-79
2022/10/06 08:41:18;;;;;;;12.38;2.28;;;;;;;;;;5074413;28;20040;-79
2022/10/06 08:43:52;;;;;;;10.40;2.22;;;;;;;;;;5074751;28;20044;-78
2022/10/06 08:46:20;;;;;;;9.13;2.35;;;;;;;;;;5074200;28;20440;-79
2022/10/06 08:48:46;;;;;;;12.00;2.30;;;;;;;;;;5073163;28;20122;-78
2022/10/06 08:51:22;;;;;;;12.90;2.45;;;;;;;;;;5091870;28;20045;-79
2022/10/06 08:53:58;;;;;;;13.90;2.33;;;;;;;;;;5092587;28;20087;-78
2022/10/06 08:56:27;;;;;;;11.57;2.25;;;;;;;;;;5092249;28;20048;-78
2022/10/06 08:58:54;;;;;;;12.70;2.38;;;;;;;;;;5092843;28;20047;-78
2022/10/06 09:01:22;;;;;;;10.98;2.35;;;;;;;;;;5074105;28;20058;-79
2022/10/06 09:03:50;;;;;;;12.75;2.47;;;;;;;;;;5092688;28;20130;-79
2022/10/06 09:06:30;;;;;;;9.60;2.22;;;;;;;;;;5071659;28;20054;-79
2022/10/06 09:09:24;;;;;;;9.35;2.60;;;;;;;;;;5074307;28;20045;-78
2022/10/06 09:11:52;;;;;;;12.63;3.08;;;;;;;;;;5054851;28;20097;-79
2022/10/06 09:14:39;;;;;;;7.22;1.90;;;;;;;;;;5074530;28;20186;-79
2022/10/06 09:17:09;;;;;;;15.65;2.53;;;;;;;;;;5091833;28;20048;-79
2022/10/06 09:20:05;;;;;;;10.25;2.30;;;;;;;;;;5092483;28;20062;-78
2022/10/06 09:22:31;;;;;;;10.53;1.87;;;;;;;;;;5070769;28;20056;-78
2022/10/06 09:25:00;;;;;;;11.27;2.38;;;;;;;;;;5092395;28;20335;-79
2022/10/06 09:27:32;;;;;;;10.38;2.20;;;;;;;;;;5074139;28;20124;-78
2022/10/06 09:29:59;;;;;;;10.82;2.60;;;;;;;;;;5092601;28;20048;-79
2022/10/06 09:32:26;;;;;;;8.95;2.10;;;;;;;;;;5108147;28;20418;-78
2022/10/06 09:34:54;;;;;;;7.22;2.05;;;;;;;;;;5112808;28;20039;-79
2022/10/06 09:37:21;;;;;;;7.38;1.90;;;;;;;;;;5094264;28;20620;-77
2022/10/06 09:39:49;;;;;;;11.05;2.20;;;;;;;;;;5094171;28;20099;-80
2022/10/06 09:42:23;;;;;;;7.47;1.98;;;;;;;;;;5093861;28;20051;-80
2022/10/06 09:44:50;;;;;;;8.68;2.15;;;;;;;;;;5094403;28;20044;-78
2022/10/06 09:47:31;;;;;;;8.23;1.90;;;;;;;;;;5072591;28;20047;-78
2022/10/06 09:50:10;;;;;;;11.40;2.15;;;;;;;;;;5092130;28;20040;-81
2022/10/06 09:52:37;;;;;;;13.13;2.15;;;;;;;;;;5073641;28;20552;-79
2022/10/06 09:55:08;;;;;;;12.50;1.95;;;;;;;;;;5073719;28;20047;-79
2022/10/06 09:57:36;;;;;;;9.45;2.30;;;;;;;;;;5073190;28;20134;-79
2022/10/06 10:00:02;;;;;;;7.97;1.83;;;;;;;;;;5072821;28;20063;-79
2022/10/06 10:02:35;;;;;;;6.88;1.88;;;;;;;;;;5073760;28;20044;-79
2022/10/06 10:05:01;;;;;;;10.05;2.08;;;;;;;;;;5073793;28;20048;-79
2022/10/06 10:07:29;;;;;;;8.40;2.05;;;;;;;;;;5091666;28;20040;-79
2022/10/06 10:10:13;;;;;;;8.75;2.10;;;;;;;;;;5071642;28;20048;-79
2022/10/06 10:12:48;;;;;;;9.82;2.38;;;;;;;;;;5091589;28;20055;-79
2022/10/06 10:15:17;;;;;;;7.05;1.70;;;;;;;;;;5073697;28;20040;-79
2022/10/06 10:17:49;;;;;;;8.73;2.08;;;;;;;;;;5056651;28;20525;-79
2022/10/06 10:20:26;;;;;;;10.15;2.13;;;;;;;;;;5091584;28;20040;-79
2022/10/06 10:23:04;;;;;;;7.43;1.83;;;17.00;99.90;;;;;;5073439;28;20117;-79
2022/10/06 10:25:43;;;;;;;7.38;1.67;;;23.50;94.70;;;;;;5091387;28;20534;-80
2022/10/06 10:28:16;;;;;;;8.43;1.95;;;23.40;93.90;;;;;;5056930;28;20040;-80
2022/10/06 10:30:59;;;;;;;8.43;1.80;;;23.20;94.50;;;;;;5077565;28;20048;-80
2022/10/06 10:33:52;;;;;;;9.13;2.25;;;23.10;94.60;;;;;;5115432;28;20081;-81
2022/10/06 10:36:23;;;;;;;6.18;1.73;;;23.20;94.80;;;;;;5115235;28;20113;-80
2022/10/06 10:38:49;;;;;;;8.07;2.10;;;23.60;94.30;;;;;;5114910;28;20133;-80
2022/10/06 10:41:29;;;;;;;8.48;2.20;;;24.30;93.60;;;;;;5113671;28;20031;-81
2022/10/06 10:44:07;;;;;;;7.90;1.83;;;24.70;93.40;;;;;;5097237;28;20052;-81
2022/10/06 10:46:47;;;;;;;5.30;1.80;;;25.10;93.00;;;;;;5097078;28;20462;-81
2022/10/06 10:49:19;;;;;;;6.25;1.55;;;25.50;92.20;;;;;;5114847;28;20039;-81
2022/10/06 10:51:57;;;;;;;7.50;1.83;;;26.20;90.10;;;;;;5114665;28;20058;-80
2022/10/06 10:54:43;;;;;;;7.88;1.85;;;26.10;89.30;;;;;;5097226;28;20051;-81
2022/10/06 10:57:18;;;;;;;7.72;1.88;;;26.00;89.60;;;;;;5115093;28;20047;-81
2022/10/06 11:00:00;;;;;;;8.43;1.73;;;26.30;87.20;;;;;;5115361;28;20043;-81
2022/10/06 11:02:27;;;;;;;9.10;1.95;;;26.30;87.90;;;;;;5114902;28;20047;-81
2022/10/06 11:05:11;;;;;;;6.05;2.00;;;26.50;87.80;;;;;;5115144;28;20055;-81
2022/10/06 11:07:43;;;;;;;8.13;1.85;;;27.00;84.60;;;;;;5115197;28;20451;-81
2022/10/06 11:10:23;;;;;;;5.35;1.88;;;27.20;82.70;;;;;;5115135;28;20057;-81
2022/10/06 11:12:56;;;;;;;6.50;2.00;;;27.40;82.10;;;;;;5114657;28;20040;-81
2022/10/06 11:15:45;;;;;;;6.00;1.50;;;27.20;83.30;;;;;;5114663;28;20062;-81
2022/10/06 11:18:34;;;;;;;7.68;1.90;;;27.40;82.50;;;;;;5114429;28;20473;-81
2022/10/06 11:21:19;;;;;;;7.57;2.00;;;27.20;82.00;;;;;;5114198;28;20047;-82
2022/10/06 11:24:26;;;;;;;7.50;2.05;;;27.20;83.00;;;;;;5096572;28;20130;-80
2022/10/06 11:27:02;;;;;;;7.50;1.65;;;27.50;81.30;;;;;;5076046;28;20051;-81
2022/10/06 11:29:47;;;;;;;5.13;1.73;;;27.90;79.40;;;;;;5076228;28;20040;-81
2022/10/06 11:32:48;;;;;;;8.25;1.60;;;27.90;77.10;;;;;;5076158;28;20067;-81
2022/10/06 11:35:19;;;;;;;6.28;1.50;;;28.30;76.40;;;;;;5076538;28;20052;-81
2022/10/06 11:37:59;;;;;;;5.72;1.60;;;28.90;73.30;;;;;;5094032;28;20530;-81
2022/10/06 11:40:50;;;;;;;5.07;1.63;;;29.00;72.70;;;;;;5094220;28;20131;-81
2022/10/06 11:43:47;;;;;;;5.13;1.45;;;29.40;72.30;;;;;;5093809;28;20052;-81
2022/10/06 11:46:19;;;;;;;8.65;1.90;;;29.50;71.00;;;;;;5075583;28;20047;-81
2022/10/06 11:48:45;;;;;;;5.20;1.40;;;29.50;69.80;;;;;;5093923;28;20054;-81
2022/10/06 11:51:27;;;;;;;6.10;1.60;;;29.70;68.90;;;;;;5075484;28;20044;-81
2022/10/06 11:53:57;;;;;;;5.70;1.50;;;30.50;69.50;;;;;;5074285;28;20044;-81
2022/10/06 11:56:35;;;;;;;5.75;1.55;;;31.10;66.80;;;;;;5092942;28;20084;-81
2022/10/06 11:59:12;;;;;;;7.97;1.70;;;31.30;67.50;;;;;;5075509;28;20076;-81
2022/10/06 12:01:58;;;;;;;5.88;1.70;;;32.40;65.60;;;;;;5075023;28;20055;-81
2022/10/06 12:04:25;;;;;;;8.10;1.80;;;32.90;66.00;;;;;;5091795;28;20071;-80
2022/10/06 12:06:57;;;;;;;7.60;1.60;;;33.10;64.40;;;;;;5090916;28;20133;-80
2022/10/06 12:09:29;;;;;;;5.57;1.50;;;32.60;63.60;;;;;;5092893;28;20040;-80
2022/10/06 12:11:57;;;;;;;8.00;1.70;;;32.70;63.30;;;;;;5093032;28;20052;-80
2022/10/06 12:14:32;;;;;;;5.35;1.40;;;33.40;61.60;;;;;;5075231;28;20250;-80
2022/10/06 12:17:13;;;;;;;6.03;1.67;;;33.60;60.80;;;;;;5093328;28;20349;-80
2022/10/06 12:20:00;;;;;;;6.00;1.60;;;34.00;61.40;;;;;;5093457;28;20048;-80
2022/10/06 12:22:37;;;;;;;5.72;1.73;;;35.30;60.70;;;;;;5074873;28;20122;-80
2022/10/06 12:25:23;;;;;;;7.03;2.00;;;35.60;59.80;;;;;;5093412;28;20044;-82
2022/10/06 12:28:17;;;;;;;7.95;1.65;;;36.50;59.80;;;;;;5074862;28;20382;-80
2022/10/06 12:31:01;;;;;;;5.53;1.67;;;36.80;57.50;;;;;;5090667;28;20044;-81
2022/10/06 12:33:36;;;;;;;5.35;1.48;;;36.10;57.30;;;;;;5091177;28;20438;-81
2022/10/06 12:36:14;;;;;;;8.40;1.52;;;35.40;57.60;;;;;;5074068;28;20380;-81
2022/10/06 12:38:42;;;;;;;3.92;1.60;;;35.30;57.30;;;;;;5092702;28;20059;-80
2022/10/06 12:41:12;;;;;;;6.47;1.73;;;35.20;57.10;;;;;;5074405;28;20101;-81
2022/10/06 12:43:52;;;;;;;7.20;1.60;;;;;;;;;;5074701;28;20060;-83
2022/10/06 12:46:42;;;;;;;6.53;1.60;;;;;;;;;;5074466;28;20101;-80
2022/10/06 12:49:34;;;;;;;8.18;1.50;;;;;;;;;;5062332;28;20097;-80
2022/10/06 12:52:06;;;;;;;7.90;1.65;;;;;;;;;;5092085;28;20052;-80
2022/10/06 12:54:37;;;;;;;6.10;1.60;;;;;;;;;;5074589;28;20048;-80
2022/10/06 12:57:13;;;;;;;5.55;1.80;;;;;;;;;;5074024;28;20108;-80
2022/10/06 12:59:39;;;;;;;8.73;1.55;;;;;;;;;;5092541;28;20044;-79
2022/10/06 13:02:10;;;;;;;6.13;1.73;;;;;;;;;;5057305;28;20075;-80
2022/10/06 13:04:43;;;;;;;7.15;1.83;;;34.80;57.20;;;;;;5092510;28;20090;-80
2022/10/06 13:07:13;;;;;;;4.75;1.55;;;24.20;69.10;;;;;;5073900;28;20036;-80
2022/10/06 13:09:40;;;;;;;5.03;1.60;;;23.20;69.80;;;;;;5092514;28;20052;-80
2022/10/06 13:12:36;;;;;;;6.63;1.55;;;22.80;70.80;;;;;;5092196;28;20119;-80
2022/10/06 13:15:17;;;;;;;5.78;1.70;;;22.50;71.50;;;;;;5055713;28;20051;-79
2022/10/06 13:18:14;;;;;;;7.50;1.80;;;22.30;71.60;;;;;;5073185;28;20492;-76
2022/10/06 13:20:53;;;;;;;5.25;1.70;;;22.10;72.30;;;;;;5072105;28;20044;-79
2022/10/06 13:23:29;;;;;;;8.23;1.90;;;21.90;73.80;;;;;;5090037;28;20083;-77
2022/10/06 13:26:01;;;;;;;9.05;1.90;;;21.70;74.70;;;;;;5110707;28;20051;-78
2022/10/06 13:28:43;;;;;;;6.50;1.70;;;21.50;75.10;;;;;;5093350;28;20111;-77